Time;durP1;ratioP1;P1;durP2;ratioP2;P2;SDS_P1;SDS_P2;PMS_P1;PMS_P2;Temp;Humidity;BMP_temperature;BMP_pressure;BME280_temperature;BME280_humidity;BME280_pressure;Samples;Min_cycle;Max_cycle;Signal;HPM_P1;HPM_P2
2021/12/19 00:03:00;;;;;;;;;108.50;100.00;;;;;;;;5049793;27;8780;-80
2021/12/19 00:10:24;;;;;;;;;106.50;102.75;;;;;;;;5049979;28;8823;-80
2021/12/19 00:12:51;;;;;;;;;102.67;98.00;;;;;;;;5049605;27;9039;-80
2021/12/19 00:15:16;;;;;;;;;107.80;103.80;;;;;;;;5050112;28;8804;-80
2021/12/19 00:17:42;;;;;;;;;96.50;87.00;;;;;;;;5049288;27;8830;-80
2021/12/19 00:20:08;;;;;;;;;102.25;97.00;;;;;;;;5049783;27;8974;-80
2021/12/19 00:22:33;;;;;;;;;100.40;94.80;;;;;;;;5050128;27;8737;-80
2021/12/19 00:24:59;;;;;;;;;125.50;113.25;;;;;;;;5049443;27;9550;-80
2021/12/19 00:27:24;;;;;;;;;106.00;101.40;;;;;;;;5049898;28;12114;-81
2021/12/19 00:29:49;;;;;;;;;96.00;88.00;;;;;;;;5049421;27;9611;-80
2021/12/19 00:32:15;;;;;;;;;104.25;96.50;;;;;;;;5049483;28;8920;-80
2021/12/19 00:34:40;;;;;;;;;100.33;87.33;;;;;;;;5049457;28;8808;-80
2021/12/19 00:37:05;;;;;;;;;117.00;110.00;;;;;;;;5036109;27;8833;-80
2021/12/19 00:39:30;;;;;;;;;98.75;90.25;;;;;;;;5049923;28;8784;-80
2021/12/19 00:41:56;;;;;;;;;94.00;83.33;;;;;;;;5049118;27;8834;-80
2021/12/19 00:44:25;;;;;;;;;90.00;74.33;;;;;;;;5067378;27;8816;-80
2021/12/19 00:46:53;;;;;;;;;87.00;68.60;;;;;;;;5047193;27;11556;-80
2021/12/19 00:49:22;;;;;;;;;98.20;88.00;;;;;;;;5050980;27;8800;-80
2021/12/19 00:51:48;;;;;;;;;91.25;76.50;;;;;;;;5052166;27;8776;-80
2021/12/19 00:54:14;;;;;;;;;97.25;85.25;;;;;;;;5052850;27;8927;-81
2021/12/19 00:56:41;;;;;;;;;86.67;71.00;;;;;;;;5046515;27;8885;-81
2021/12/19 00:59:07;;;;;;;;;98.00;89.75;;;;;;;;5052547;27;8768;-80
2021/12/19 01:01:33;;;;;;;;;91.20;77.40;;;;;;;;5052215;27;8807;-81
2021/12/19 01:03:58;;;;;;;;;96.00;88.00;;;;;;;;5052369;28;8788;-81
2021/12/19 01:06:24;;;;;;;;;91.75;77.50;;;;;;;;5076503;27;8912;-80
2021/12/19 01:08:49;;;;;;;;;90.00;75.00;;;;;;;;5052324;27;8870;-80
2021/12/19 01:11:15;;;;;;;;;96.50;87.25;;;;;;;;5052188;28;8927;-81
2021/12/19 01:13:40;;;;;;;;;94.25;83.50;;;;;;;;5052368;27;8874;-81
2021/12/19 01:16:06;;;;;;;;;88.00;71.00;;;;;;;;5051915;28;11551;-81
2021/12/19 01:18:31;;;;;;;;;91.75;81.50;;;;;;;;5052308;27;8836;-81
2021/12/19 01:20:57;;;;;;;;;101.75;93.75;;;;;;;;5051633;28;8842;-81
2021/12/19 01:23:22;;;;;;;;;96.00;86.50;;;;;;;;5052615;28;8832;-81
2021/12/19 01:25:48;;;;;;;;;96.00;87.00;;;;;;;;5051986;27;8811;-81
2021/12/19 01:28:14;;;;;;;;;96.60;87.00;;;;;;;;5052195;28;8733;-81
2021/12/19 01:30:39;;;;;;;;;93.75;83.75;;;;;;;;5051815;27;8816;-81
2021/12/19 01:33:04;;;;;;;;;95.33;84.00;;;;;;;;5051805;28;8820;-80
2021/12/19 01:35:30;;;;;;;;;101.50;96.50;;;;;;;;5052019;28;8830;-80
2021/12/19 01:37:55;;;;;;;;;99.67;96.33;;;;;;;;5051841;27;8891;-80
2021/12/19 01:40:22;;;;;;;;;100.00;91.25;;;;;;;;5051943;27;8824;-80
2021/12/19 01:42:49;;;;;;;;;97.60;88.80;;;;;;;;5051858;27;8804;-80
2021/12/19 01:45:22;;;;;;;;;95.00;86.20;;;;;;;;5068025;27;8905;-80
2021/12/19 01:47:47;;;;;;;;;102.00;94.40;;;;;;;;5051445;28;9689;-80
2021/12/19 01:50:13;;;;;;;;;100.00;93.40;;;;;;;;5051572;28;8858;-80
2021/12/19 01:52:38;;;;;;;;;98.80;92.80;;;;;;;;5051799;27;8832;-80
2021/12/19 01:55:04;;;;;;;;;108.00;104.80;;;;;;;;5051511;28;9548;-80
2021/12/19 01:57:29;;;;;;;;;102.00;98.50;;;;;;;;5045835;27;8812;-80
2021/12/19 01:59:55;;;;;;;;;102.75;100.50;;;;;;;;5051362;28;8846;-80
2021/12/19 02:02:20;;;;;;;;;99.80;90.60;;;;;;;;5050921;27;8812;-80
2021/12/19 02:04:46;;;;;;;;;109.40;106.40;;;;;;;;5051427;27;8900;-80
2021/12/19 02:07:12;;;;;;;;;101.40;97.00;;;;;;;;5069433;27;8931;-80
2021/12/19 02:09:38;;;;;;;;;101.80;98.60;;;;;;;;5051498;27;8803;-80
2021/12/19 02:12:03;;;;;;;;;104.40;97.80;;;;;;;;5051582;28;8796;-80
2021/12/19 02:14:29;;;;;;;;;104.00;99.60;;;;;;;;5051411;27;8939;-80
2021/12/19 02:16:56;;;;;;;;;93.20;82.00;;;;;;;;5051098;27;8989;-81
2021/12/19 02:19:24;;;;;;;;;100.50;95.00;;;;;;;;5051541;28;8942;-81
2021/12/19 02:21:49;;;;;;;;;101.20;96.40;;;;;;;;5062563;27;8794;-81
2021/12/19 02:24:15;;;;;;;;;105.40;102.20;;;;;;;;5053111;28;8895;-81
2021/12/19 02:26:41;;;;;;;;;95.20;85.40;;;;;;;;5051488;27;8818;-81
2021/12/19 02:29:07;;;;;;;;;105.40;104.80;;;;;;;;5050054;28;8839;-81
2021/12/19 02:31:33;;;;;;;;;92.80;81.60;;;;;;;;5062849;27;8901;-81
2021/12/19 02:34:07;;;;;;;;;91.40;78.60;;;;;;;;5052707;27;8872;-81
2021/12/19 02:49:47;;;;;;;;;101.00;91.80;;;;;;;;5050880;28;11505;-80
2021/12/19 02:52:14;;;;;;;;;101.00;93.00;;;;;;;;5051090;28;9632;-80
2021/12/19 02:54:40;;;;;;;;;105.20;99.00;;;;;;;;5049452;27;8824;-80
2021/12/19 02:57:05;;;;;;;;;99.40;91.20;;;;;;;;5045141;27;8812;-80
2021/12/19 02:59:31;;;;;;;;;95.33;84.67;;;;;;;;5051060;28;8808;-80
2021/12/19 03:01:57;;;;;;;;;103.25;98.50;;;;;;;;5050649;27;8842;-80
2021/12/19 03:04:22;;;;;;;;;88.00;70.25;;;;;;;;5060839;27;8816;-80
2021/12/19 03:06:48;;;;;;;;;93.75;80.50;;;;;;;;5068940;27;8815;-82
2021/12/19 03:09:20;;;;;;;;;95.60;86.60;;;;;;;;5049358;27;11631;-80
2021/12/19 03:12:58;;;;;;;;;89.50;75.25;;;;;;;;5050262;27;8732;-80
2021/12/19 03:20:09;;;;;;;;;96.20;84.80;;;;;;;;5050679;28;8792;-80
2021/12/19 03:22:34;;;;;;;;;94.00;82.00;;;;;;;;5050679;27;8875;-80
2021/12/19 03:25:00;;;;;;;;;111.40;106.60;;;;;;;;5050536;28;8812;-80
2021/12/19 03:27:25;;;;;;;;;102.25;94.75;;;;;;;;5050667;27;8824;-80
2021/12/19 03:29:50;;;;;;;;;99.40;92.60;;;;;;;;5048842;28;8812;-80
2021/12/19 03:32:16;;;;;;;;;92.75;78.00;;;;;;;;5050276;27;8832;-79
2021/12/19 03:34:41;;;;;;;;;96.33;87.00;;;;;;;;5050458;28;8897;-82
2021/12/19 03:37:06;;;;;;;;;109.50;106.75;;;;;;;;5036994;27;8798;-79
2021/12/19 03:39:45;;;;;;;;;105.00;99.40;;;;;;;;5050505;27;8946;-79
2021/12/19 03:42:10;;;;;;;;;95.60;85.60;;;;;;;;5050531;28;8834;-79
2021/12/19 03:44:35;;;;;;;;;98.33;91.67;;;;;;;;5123238;27;8814;-79
2021/12/19 03:47:01;;;;;;;;;102.50;96.00;;;;;;;;5062845;27;8887;-81
2021/12/19 03:49:26;;;;;;;;;100.40;94.60;;;;;;;;5050550;27;8858;-82
2021/12/19 03:51:51;;;;;;;;;97.00;85.40;;;;;;;;5049790;28;8828;-82
2021/12/19 03:54:17;;;;;;;;;100.75;94.50;;;;;;;;5050329;27;8843;-82
2021/12/19 03:56:42;;;;;;;;;106.75;100.75;;;;;;;;5043959;28;8820;-83
2021/12/19 03:59:08;;;;;;;;;89.20;76.00;;;;;;;;5050038;27;12086;-83
2021/12/19 04:01:33;;;;;;;;;99.40;91.80;;;;;;;;5049944;28;8808;-82
2021/12/19 04:04:00;;;;;;;;;100.00;95.20;;;;;;;;5050003;27;9625;-83
2021/12/19 04:06:25;;;;;;;;;101.60;97.20;;;;;;;;5068477;27;9696;-82
2021/12/19 04:08:51;;;;;;;;;95.40;86.20;;;;;;;;5049592;27;8808;-83
2021/12/19 04:11:16;;;;;;;;;101.20;96.40;;;;;;;;5050051;28;8796;-82
2021/12/19 04:13:41;;;;;;;;;90.25;78.50;;;;;;;;5049593;27;8847;-83
2021/12/19 04:16:07;;;;;;;;;99.00;93.50;;;;;;;;5049536;28;8796;-83
2021/12/19 04:18:32;;;;;;;;;111.75;109.00;;;;;;;;5050104;27;8801;-83
2021/12/19 04:20:57;;;;;;;;;104.00;100.75;;;;;;;;5049195;28;8842;-83
2021/12/19 04:23:23;;;;;;;;;101.00;94.00;;;;;;;;5050039;27;8911;-83
2021/12/19 04:25:50;;;;;;;;;103.00;98.60;;;;;;;;5052588;28;9560;-82
2021/12/19 04:28:15;;;;;;;;;135.00;127.83;;;;;;;;5052867;27;8915;-83
2021/12/19 04:30:40;;;;;;;;;109.20;104.80;;;;;;;;5052419;27;8959;-83
2021/12/19 04:33:10;;;;;;;;;113.20;108.80;;;;;;;;5052642;28;8927;-83
2021/12/19 04:35:37;;;;;;;;;126.40;126.40;;;;;;;;5049616;27;8779;-83
2021/12/19 04:51:50;;;;;;;;;127.83;125.67;;;;;;;;5052478;28;8804;-83
2021/12/19 05:02:16;;;;;;;;;127.50;125.33;;;;;;;;5040894;28;8781;-83
2021/12/19 05:05:17;;;;;;;;;123.60;122.60;;;;;;;;5052389;27;8819;-83
2021/12/19 05:15:43;;;;;;;;;101.40;97.80;;;;;;;;5052049;28;11567;-84
2021/12/19 05:18:09;;;;;;;;;141.20;140.80;;;;;;;;5051854;27;11548;-83
2021/12/19 05:20:36;;;;;;;;;118.60;117.80;;;;;;;;5052335;28;9638;-83
2021/12/19 05:23:11;;;;;;;;;126.00;124.50;;;;;;;;5050271;27;12544;-83
2021/12/19 05:25:36;;;;;;;;;119.60;117.60;;;;;;;;5052195;28;8807;-83
2021/12/19 05:28:01;;;;;;;;;146.50;142.50;;;;;;;;5050322;27;9985;-83
2021/12/19 05:30:27;;;;;;;;;118.00;116.40;;;;;;;;5052186;28;8812;-83
2021/12/19 05:32:53;;;;;;;;;125.75;123.75;;;;;;;;5051599;27;8990;-83
2021/12/19 05:35:28;;;;;;;;;132.80;130.40;;;;;;;;5050156;28;9555;-83
2021/12/19 05:46:06;;;;;;;;;130.00;129.00;;;;;;;;5051560;28;8925;-83
2021/12/19 05:48:31;;;;;;;;;134.20;132.20;;;;;;;;5051909;27;8830;-83
2021/12/19 05:50:56;;;;;;;;;136.00;135.25;;;;;;;;5051724;27;8819;-83
2021/12/19 05:53:22;;;;;;;;;139.20;137.80;;;;;;;;5051752;27;8852;-83
2021/12/19 05:55:47;;;;;;;;;143.60;141.80;;;;;;;;5049440;28;8796;-83
2021/12/19 05:58:12;;;;;;;;;142.00;139.75;;;;;;;;5048459;28;8816;-83
2021/12/19 06:00:38;;;;;;;;;142.00;138.80;;;;;;;;5051786;28;8800;-83
2021/12/19 06:03:04;;;;;;;;;121.00;121.00;;;;;;;;5051189;27;8824;-83
2021/12/19 06:05:29;;;;;;;;;135.40;132.80;;;;;;;;5061538;27;8836;-83
2021/12/19 06:07:54;;;;;;;;;141.80;138.60;;;;;;;;5068012;27;8796;-83
2021/12/19 06:10:20;;;;;;;;;137.25;135.75;;;;;;;;5051627;27;8898;-83
2021/12/19 06:12:46;;;;;;;;;141.75;139.75;;;;;;;;5051168;27;8816;-83
2021/12/19 06:15:11;;;;;;;;;138.00;137.25;;;;;;;;5051250;27;11593;-83
2021/12/19 06:17:40;;;;;;;;;141.80;141.20;;;;;;;;5051302;28;8815;-83
2021/12/19 06:20:06;;;;;;;;;146.40;146.20;;;;;;;;5062433;27;8801;-83
2021/12/19 06:22:32;;;;;;;;;139.83;139.33;;;;;;;;5053468;27;8808;-83
2021/12/19 06:24:57;;;;;;;;;139.50;136.75;;;;;;;;5051588;28;8828;-83
2021/12/19 06:27:23;;;;;;;;;146.67;143.67;;;;;;;;5049724;28;11594;-83
2021/12/19 06:29:49;;;;;;;;;139.75;138.25;;;;;;;;5051153;27;8822;-83
2021/12/19 06:32:15;;;;;;;;;148.20;142.20;;;;;;;;5050867;28;8784;-83
2021/12/19 06:34:40;;;;;;;;;144.50;142.00;;;;;;;;5051097;27;8788;-83
2021/12/19 06:37:09;;;;;;;;;141.25;141.25;;;;;;;;5037882;28;9718;-83
2021/12/19 06:39:35;;;;;;;;;136.60;135.60;;;;;;;;5051414;27;8777;-84
2021/12/19 06:42:00;;;;;;;;;144.60;143.00;;;;;;;;5053862;28;8800;-83
2021/12/19 06:44:26;;;;;;;;;143.20;142.00;;;;;;;;5073986;27;8788;-82
2021/12/19 06:46:51;;;;;;;;;134.50;132.00;;;;;;;;5050410;28;8828;-83
2021/12/19 06:49:17;;;;;;;;;122.00;118.40;;;;;;;;5051208;27;8921;-83
2021/12/19 06:51:42;;;;;;;;;133.40;133.00;;;;;;;;5050754;28;8830;-84
2021/12/19 06:54:07;;;;;;;;;114.75;111.25;;;;;;;;5051238;27;8848;-83
2021/12/19 06:56:33;;;;;;;;;130.00;128.80;;;;;;;;5045281;28;8816;-83
2021/12/19 06:58:58;;;;;;;;;142.75;140.75;;;;;;;;5049536;27;8964;-83
2021/12/19 07:01:23;;;;;;;;;138.00;136.20;;;;;;;;5062475;28;8824;-83
2021/12/19 07:03:49;;;;;;;;;143.40;142.00;;;;;;;;5050892;27;8839;-83
2021/12/19 07:06:14;;;;;;;;;139.75;138.75;;;;;;;;5066162;27;8832;-83
2021/12/19 07:08:39;;;;;;;;;128.60;128.20;;;;;;;;5050614;27;10577;-83
2021/12/19 07:11:05;;;;;;;;;145.00;144.67;;;;;;;;5050879;28;8804;-82
2021/12/19 07:13:30;;;;;;;;;144.00;142.50;;;;;;;;5060868;27;8883;-83
2021/12/19 07:15:55;;;;;;;;;146.40;146.00;;;;;;;;5053271;28;8796;-83
2021/12/19 07:18:21;;;;;;;;;136.50;135.75;;;;;;;;5050910;27;8812;-83
2021/12/19 07:20:47;;;;;;;;;138.67;137.17;;;;;;;;5050251;28;9580;-83
2021/12/19 07:23:16;;;;;;;;;147.60;145.00;;;;;;;;5050730;27;8872;-83
2021/12/19 07:25:41;;;;;;;;;139.00;137.40;;;;;;;;5048743;28;8881;-83
2021/12/19 07:28:07;;;;;;;;;135.80;133.80;;;;;;;;5050618;27;8800;-83
2021/12/19 07:30:35;;;;;;;;;141.60;140.40;;;;;;;;5050458;28;8831;-83
2021/12/19 07:33:01;;;;;;;;;136.20;135.00;;;;;;;;5050146;27;8866;-83
2021/12/19 07:35:27;;;;;;;;;143.00;140.60;;;;;;;;5048438;27;8804;-83
2021/12/19 07:37:55;;;;;;;;;135.80;135.20;;;;;;;;5047670;28;11337;-83
2021/12/19 07:40:22;;;;;;;;;127.60;127.00;;;;;;;;5054775;27;8776;-83
2021/12/19 07:42:47;;;;;;;;;135.80;135.80;;;;;;;;5050450;27;8835;-83
2021/12/19 07:45:14;;;;;;;;;134.80;134.80;;;;;;;;5064831;27;11581;-83
2021/12/19 07:47:39;;;;;;;;;125.00;124.40;;;;;;;;5049978;28;8808;-83
2021/12/19 07:50:07;;;;;;;;;141.50;139.50;;;;;;;;5052177;27;8844;-84
2021/12/19 07:52:33;;;;;;;;;143.80;140.40;;;;;;;;5055249;27;8824;-83
2021/12/19 07:54:58;;;;;;;;;132.60;132.00;;;;;;;;5073513;27;8896;-83
2021/12/19 07:57:23;;;;;;;;;140.60;134.60;;;;;;;;5044151;28;9658;-83
2021/12/19 07:59:49;;;;;;;;;150.25;146.25;;;;;;;;5053638;28;8784;-83
2021/12/19 08:02:14;;;;;;;;;159.00;153.50;;;;;;;;5052367;27;9928;-83
2021/12/19 08:04:39;;;;;;;;;149.00;147.25;;;;;;;;5052841;27;8828;-83
2021/12/19 08:07:05;;;;;;;;;163.50;159.50;;;;;;;;5102265;27;8868;-83
2021/12/19 08:09:39;;;;;;;;;163.00;157.80;;;;;;;;5052848;28;8834;-83
2021/12/19 08:12:05;;;;;;;;;144.33;143.67;;;;;;;;5051258;28;8822;-83
2021/12/19 08:14:30;;;;;;;;;129.80;129.40;;;;;;;;5069517;27;8869;-83
2021/12/19 08:16:56;;;;;;;;;147.00;146.80;;;;;;;;5057059;27;8827;-83
2021/12/19 08:19:21;;;;;;;;;140.50;135.50;;;;;;;;5063809;27;8824;-83
2021/12/19 08:21:46;;;;;;;;;132.67;129.33;;;;;;;;5060467;27;8828;-83
2021/12/19 08:24:13;;;;;;;;;120.00;116.50;;;;;;;;5052979;28;8900;-83
2021/12/19 08:26:40;;;;;;;;;119.20;112.80;;;;;;;;5052387;27;8900;-83
2021/12/19 08:29:05;;;;;;;;;313.60;287.80;;;;;;;;5052177;28;8958;-83
2021/12/19 08:31:31;;;;;;;;;128.00;122.33;;;;;;;;5052666;27;8884;-83
2021/12/19 08:33:58;;;;;;;;;144.60;138.60;;;;;;;;5050800;28;8820;-83
2021/12/19 08:36:23;;;;;;;;;106.40;103.80;;;;;;;;5052409;27;8877;-80
2021/12/19 08:38:55;;;;;;;;;123.50;118.75;;;;;;;;5052719;27;8800;-79
2021/12/19 08:41:20;;;;;;;;;97.50;88.75;;;;;;;;5049896;27;8789;-80
2021/12/19 08:43:46;;;;;;;;;129.20;121.80;;;;;;;;5083983;27;8812;-80
2021/12/19 08:46:12;;;;;;;;;102.60;98.00;;;;;;;;5052187;27;8800;-81
2021/12/19 08:48:37;;;;;;;;;104.50;97.75;;;;;;;;5052492;27;8808;-80
2021/12/19 08:51:03;;;;;;;;;93.00;82.25;;;;;;;;5052077;28;8800;-81
2021/12/19 08:53:28;;;;;;;;;97.25;87.75;;;;;;;;5053362;27;8808;-81
2021/12/19 08:55:53;;;;;;;;;94.00;85.75;;;;;;;;5037676;28;8830;-80
2021/12/19 08:58:19;;;;;;;;;92.33;79.67;;;;;;;;5047929;28;8831;-81
2021/12/19 09:00:44;;;;;;;;;109.33;106.67;;;;;;;;5052327;27;8816;-80
2021/12/19 09:03:09;;;;;;;;;101.25;97.00;;;;;;;;5049934;27;11200;-79
2021/12/19 09:05:35;;;;;;;;;100.75;94.25;;;;;;;;5051381;27;11608;-80
2021/12/19 09:08:00;;;;;;;;;104.80;100.60;;;;;;;;5052029;28;8830;-81
2021/12/19 09:11:14;;;;;;;;;100.25;94.25;;;;;;;;5050743;27;8874;-85
2021/12/19 09:13:14;;;;;;;;;102.60;98.20;;;;;;;;5062404;27;8816;-79
2021/12/19 09:15:40;;;;;;;;;101.00;92.60;;;;;;;;5051875;27;8807;-79
2021/12/19 09:18:05;;;;;;;;;123.50;116.75;;;;;;;;5052177;28;9730;-80
2021/12/19 09:20:30;;;;;;;;;95.33;86.33;;;;;;;;5052134;27;8816;-80
2021/12/19 09:22:56;;;;;;;;;97.50;91.25;;;;;;;;5051972;28;9547;-80
2021/12/19 09:25:21;;;;;;;;;80.50;67.00;;;;;;;;5052375;27;8812;-79
2021/12/19 09:27:47;;;;;;;;;90.25;77.50;;;;;;;;5052232;28;8808;-80
2021/12/19 09:30:13;;;;;;;;;92.50;79.50;;;;;;;;5051709;27;8780;-80
2021/12/19 09:32:38;;;;;;;;;161.40;151.80;;;;;;;;5050549;28;8855;-80
2021/12/19 09:35:04;;;;;;;;;94.25;83.50;;;;;;;;5051671;27;8792;-79
2021/12/19 09:37:30;;;;;;;;;82.80;67.20;;;;;;;;5052176;28;8835;-80
2021/12/19 09:39:55;;;;;;;;;84.00;68.00;;;;;;;;5051933;27;8815;-79
2021/12/19 09:42:23;;;;;;;;;101.25;92.50;;;;;;;;5052188;28;8804;-79
2021/12/19 09:44:48;;;;;;;;;98.60;87.00;;;;;;;;5100289;27;8816;-79
2021/12/19 09:47:13;;;;;;;;;96.00;87.25;;;;;;;;5051708;28;8946;-80
2021/12/19 09:49:39;;;;;;;;;83.00;67.75;;;;;;;;5050568;27;8815;-79
2021/12/19 09:52:07;;;;;;;;;90.20;70.60;;;;;;;;5051722;28;8804;-79
2021/12/19 09:54:33;;;;;;;;;92.20;80.60;;;;;;;;5052003;28;8820;-79
2021/12/19 09:56:58;;;;;;;;;90.25;78.25;;;;;;;;5049095;28;8812;-78
2021/12/19 09:59:24;;;;;;;;;92.25;78.75;;;;;;;;5051905;27;8800;-79
2021/12/19 10:01:50;;;;;;;;;88.25;73.75;;;;;;;;5051621;28;9638;-79
2021/12/19 10:04:33;;;;;;;;;80.00;65.00;;;;;;;;5051749;27;12454;-78
2021/12/19 10:07:08;;;;;;;;;81.00;65.50;;;;;;;;5095108;27;8896;-80
2021/12/19 10:09:36;;;;;;;;;93.50;83.00;;;;;;;;5051871;27;8902;-79
2021/12/19 10:12:35;;;;;;;;;94.25;84.25;;;;;;;;5051335;28;9678;-80
2021/12/19 10:14:55;;;;;;;;;90.75;79.00;;;;;;;;5051403;28;8796;-80
2021/12/19 10:17:20;;;;;;;;;106.50;101.25;;;;;;;;5051665;28;8891;-80
2021/12/19 10:19:47;;;;;;;;;132.75;126.50;;;;;;;;5049812;27;8808;-79
2021/12/19 10:22:25;;;;;;;;;132.50;123.00;;;;;;;;5050739;28;8815;-80
2021/12/19 10:24:51;;;;;;;;;109.00;107.00;;;;;;;;5051254;27;8784;-79
2021/12/19 10:27:32;;;;;;;;;125.40;123.20;;;;;;;;5051505;28;8800;-79
2021/12/19 10:29:58;;;;;;;;;143.60;137.40;;;;;;;;5038777;28;8842;-80
2021/12/19 10:32:23;;;;;;;;;110.40;106.60;;;;;;;;5051200;28;8796;-80
2021/12/19 10:34:48;;;;;;;;;103.67;101.33;;;;;;;;5049975;27;9648;-80
2021/12/19 10:37:30;;;;;;;;;112.75;111.00;;;;;;;;5049914;28;8808;-81
2021/12/19 10:39:58;;;;;;;;;122.40;118.20;;;;;;;;5051271;28;8818;-80
2021/12/19 10:42:25;;;;;;;;;122.60;115.40;;;;;;;;5052826;27;8806;-83
2021/12/19 10:47:35;;;;;;;;;177.00;166.00;;;;;;;;5039776;28;11455;-81
2021/12/19 10:50:00;;;;;;;;;124.80;123.60;;;;;;;;5050865;27;8853;-81
2021/12/19 10:52:36;;;;;;;;;137.25;133.25;;;;;;;;5051422;28;8803;-81
2021/12/19 10:55:09;;;;;;;;;123.00;119.50;;;;;;;;5051091;27;8818;-81
2021/12/19 10:57:39;;;;;;;;;130.75;127.25;;;;;;;;5043873;28;8861;-81
2021/12/19 11:00:06;;;;;;;;;131.80;130.40;;;;;;;;5050902;27;8835;-81
2021/12/19 11:02:36;;;;;;;;;126.40;123.20;;;;;;;;5051009;28;8796;-80
2021/12/19 11:05:02;;;;;;;;;128.00;124.75;;;;;;;;5050547;27;8806;-81
2021/12/19 11:07:27;;;;;;;;;124.00;119.75;;;;;;;;5070339;27;8807;-81
2021/12/19 11:09:52;;;;;;;;;117.25;113.50;;;;;;;;5050606;28;8785;-81
2021/12/19 11:12:18;;;;;;;;;114.25;111.00;;;;;;;;5050981;27;8800;-81
2021/12/19 11:14:44;;;;;;;;;113.50;110.00;;;;;;;;5050529;28;8936;-83
2021/12/19 11:17:11;;;;;;;;;116.25;114.00;;;;;;;;5050749;28;8788;-81
2021/12/19 11:19:37;;;;;;;;;99.40;85.80;;;;;;;;5050662;27;8825;-81
2021/12/19 11:22:02;;;;;;;;;100.80;92.80;;;;;;;;5050480;28;8812;-82
2021/12/19 11:24:29;;;;;;;;;92.75;81.50;;;;;;;;5050774;27;8808;-82
2021/12/19 11:26:59;;;;;;;;;110.20;101.40;;;;;;;;5050469;28;8799;-82
2021/12/19 11:29:25;;;;;;;;;96.00;87.75;;;;;;;;5051141;27;8784;-82
2021/12/19 11:31:57;;;;;;;;;91.80;78.40;;;;;;;;5049934;27;11589;-83
2021/12/19 11:34:22;;;;;;;;;92.20;81.40;;;;;;;;5049419;28;8812;-82
2021/12/19 11:37:11;;;;;;;;;97.25;89.75;;;;;;;;5037194;27;8848;-82
2021/12/19 11:39:39;;;;;;;;;96.20;84.80;;;;;;;;5039719;28;8835;-82
2021/12/19 11:42:07;;;;;;;;;92.75;79.00;;;;;;;;5050666;28;8773;-82
2021/12/19 11:47:35;;;;;;;;;90.60;79.40;;;;;;;;5037998;28;9625;-82
2021/12/19 11:50:11;;;;;;;;;102.00;97.20;;;;;;;;5050082;28;8885;-82
2021/12/19 11:52:37;;;;;;;;;85.00;67.25;;;;;;;;5050593;27;8812;-82
2021/12/19 11:55:14;;;;;;;;;96.00;82.67;;;;;;;;5050182;27;11499;-82
2021/12/19 11:57:40;;;;;;;;;90.25;75.50;;;;;;;;5047393;28;12645;-81
2021/12/19 12:00:25;;;;;;;;;97.25;90.25;;;;;;;;5050193;28;8781;-81
2021/12/19 12:03:10;;;;;;;;;90.75;77.75;;;;;;;;5049799;27;8792;-85
2021/12/19 12:05:36;;;;;;;;;95.75;84.00;;;;;;;;5054238;27;11733;-77
2021/12/19 12:08:04;;;;;;;;;97.00;88.33;;;;;;;;5081339;27;8819;-81
2021/12/19 12:11:00;;;;;;;;;91.20;76.20;;;;;;;;5049699;27;8823;-81
2021/12/19 12:13:27;;;;;;;;;88.75;75.00;;;;;;;;5049399;27;8819;-82
2021/12/19 12:16:00;;;;;;;;;97.25;87.75;;;;;;;;5044491;28;12321;-82
2021/12/19 12:18:34;;;;;;;;;91.40;77.40;;;;;;;;5053699;27;9665;-82
2021/12/19 12:21:21;;;;;;;;;96.20;89.60;;;;;;;;5047615;28;8808;-81
2021/12/19 12:23:55;;;;;;;;;95.80;88.00;;;;;;;;5045502;28;8803;-81
2021/12/19 12:26:22;;;;;;;;;98.60;90.40;;;;;;;;5042431;28;8748;-82
2021/12/19 12:28:47;;;;;;;;;94.20;83.20;;;;;;;;5048476;27;8787;-82
2021/12/19 12:31:14;;;;;;;;;92.50;79.75;;;;;;;;5038450;28;8854;-82
2021/12/19 12:33:40;;;;;;;;;95.20;87.20;;;;;;;;5049238;28;8898;-82
2021/12/19 12:36:05;;;;;;;;;89.25;74.25;;;;;;;;5049251;27;8812;-80
2021/12/19 12:38:33;;;;;;;;;87.00;71.00;;;;;;;;5050486;28;8804;-81
2021/12/19 12:41:07;;;;;;;;;94.00;82.40;;;;;;;;5050117;27;8792;-81
2021/12/19 12:43:34;;;;;;;;;91.00;78.25;;;;;;;;5068205;27;8786;-81
2021/12/19 12:46:00;;;;;;;;;89.20;76.20;;;;;;;;5051193;27;8819;-81
2021/12/19 12:48:29;;;;;;;;;94.60;86.40;;;;;;;;5052422;27;8782;-82
2021/12/19 12:50:54;;;;;;;;;92.60;80.80;;;;;;;;5048069;27;8854;-81
2021/12/19 12:53:30;;;;;;;;;92.00;81.75;;;;;;;;5052384;27;8824;-83
2021/12/19 12:56:01;;;;;;;;;94.20;84.60;;;;;;;;5047381;27;11552;-83
2021/12/19 12:58:26;;;;;;;;;91.75;81.00;;;;;;;;5049618;28;8827;-82
2021/12/19 13:01:10;;;;;;;;;92.75;82.25;;;;;;;;5051922;27;8789;-81
2021/12/19 13:03:36;;;;;;;;;93.00;82.80;;;;;;;;5052663;28;8893;-81
2021/12/19 13:06:01;;;;;;;;;91.00;81.00;;;;;;;;5091649;27;8809;-81
2021/12/19 13:08:28;;;;;;;;;89.00;75.25;;;;;;;;5054639;27;8812;-82
2021/12/19 13:10:53;;;;;;;;;92.75;84.75;;;;;;;;5042635;28;9597;-82
2021/12/19 13:13:24;;;;;;;;;97.25;89.00;;;;;;;;5052454;27;8834;-82
2021/12/19 13:15:49;;;;;;;;;104.25;100.50;;;;;;;;5052110;27;8804;-82
2021/12/19 13:18:14;;;;;;;;;97.75;91.25;;;;;;;;5052209;28;8834;-82
2021/12/19 13:20:39;;;;;;;;;96.00;89.25;;;;;;;;5052179;27;8819;-81
2021/12/19 13:23:05;;;;;;;;;98.60;92.00;;;;;;;;5052036;28;8838;-81
2021/12/19 13:25:38;;;;;;;;;88.75;72.50;;;;;;;;5052546;27;8827;-81
2021/12/19 13:28:05;;;;;;;;;92.25;82.00;;;;;;;;5038930;28;8928;-81
2021/12/19 13:30:32;;;;;;;;;91.40;82.00;;;;;;;;5050623;27;8796;-81
2021/12/19 13:32:58;;;;;;;;;193.80;176.80;;;;;;;;5051795;28;11579;-81
2021/12/19 13:35:31;;;;;;;;;106.20;102.80;;;;;;;;5051951;27;8814;-81
2021/12/19 13:37:58;;;;;;;;;117.00;111.00;;;;;;;;5050388;28;9035;-81
2021/12/19 13:40:31;;;;;;;;;98.60;92.80;;;;;;;;5047568;27;9764;-81
2021/12/19 13:43:02;;;;;;;;;111.80;110.00;;;;;;;;5051013;27;11598;-81
2021/12/19 13:45:30;;;;;;;;;119.50;117.00;;;;;;;;5113051;27;8764;-81
2021/12/19 13:47:57;;;;;;;;;102.75;100.00;;;;;;;;5051619;27;8818;-81
2021/12/19 13:50:23;;;;;;;;;103.00;97.80;;;;;;;;5061357;28;8818;-81
2021/12/19 13:52:48;;;;;;;;;158.00;151.50;;;;;;;;5055467;27;8804;-81
2021/12/19 13:55:15;;;;;;;;;134.60;133.40;;;;;;;;5051822;27;8952;-81
2021/12/19 13:57:41;;;;;;;;;154.00;149.00;;;;;;;;5048808;28;8800;-81
2021/12/19 14:00:09;;;;;;;;;177.20;172.80;;;;;;;;5051419;27;8800;-81
2021/12/19 14:02:38;;;;;;;;;178.80;173.60;;;;;;;;5051419;28;8793;-81
2021/12/19 14:05:04;;;;;;;;;180.00;173.83;;;;;;;;5051057;27;8820;-81
2021/12/19 14:07:29;;;;;;;;;163.80;155.00;;;;;;;;5113234;27;8848;-81
2021/12/19 14:10:02;;;;;;;;;166.25;164.25;;;;;;;;5051530;28;8816;-81
2021/12/19 14:12:51;;;;;;;;;137.20;133.60;;;;;;;;5051368;28;11633;-81
2021/12/19 14:15:15;;;;;;;;;144.20;141.00;;;;;;;;5051274;28;8812;-81
2021/12/19 14:17:40;;;;;;;;;168.80;165.60;;;;;;;;5051168;27;9610;-82
2021/12/19 14:20:06;;;;;;;;;147.00;145.00;;;;;;;;5050112;28;8853;-82
2021/12/19 14:22:31;;;;;;;;;145.40;141.00;;;;;;;;5050726;27;8943;-82
2021/12/19 14:24:58;;;;;;;;;145.80;139.40;;;;;;;;5051464;28;8812;-82
2021/12/19 14:27:25;;;;;;;;;139.00;137.40;;;;;;;;5049963;27;8872;-82
2021/12/19 14:30:08;;;;;;;;;148.20;141.80;;;;;;;;5051466;28;11599;-82
2021/12/19 14:32:36;;;;;;;;;144.40;138.60;;;;;;;;5050934;27;8733;-81
2021/12/19 14:35:21;;;;;;;;;159.80;157.40;;;;;;;;5045415;28;9595;-82
2021/12/19 14:37:48;;;;;;;;;133.20;126.60;;;;;;;;5048919;28;8797;-83
2021/12/19 14:40:17;;;;;;;;;154.67;151.50;;;;;;;;5051380;28;8776;-83
2021/12/19 14:42:45;;;;;;;;;164.50;163.33;;;;;;;;5051355;27;8800;-83
2021/12/19 14:45:18;;;;;;;;;171.20;169.40;;;;;;;;5066608;27;8939;-83
2021/12/19 14:47:45;;;;;;;;;161.00;158.40;;;;;;;;5051068;28;8772;-83
2021/12/19 14:50:12;;;;;;;;;162.50;160.50;;;;;;;;5051025;27;8792;-83
2021/12/19 14:52:37;;;;;;;;;161.20;161.00;;;;;;;;5050985;28;9560;-83
2021/12/19 14:55:09;;;;;;;;;136.80;135.40;;;;;;;;5051112;27;8861;-83
2021/12/19 14:57:34;;;;;;;;;140.20;140.20;;;;;;;;5045076;27;8803;-83
2021/12/19 15:00:00;;;;;;;;;129.00;126.20;;;;;;;;5051227;28;8797;-83
2021/12/19 15:02:25;;;;;;;;;128.25;128.25;;;;;;;;5050648;27;8796;-83
2021/12/19 15:04:50;;;;;;;;;129.80;128.00;;;;;;;;5049498;27;8860;-83
2021/12/19 15:07:21;;;;;;;;;122.60;120.40;;;;;;;;5068466;27;8850;-83
2021/12/19 15:09:47;;;;;;;;;122.00;121.40;;;;;;;;5046372;28;8800;-83
2021/12/19 15:12:12;;;;;;;;;126.50;122.75;;;;;;;;5049889;27;8840;-83
2021/12/19 15:14:37;;;;;;;;;108.67;106.00;;;;;;;;5050592;28;8830;-83
2021/12/19 15:17:03;;;;;;;;;120.00;119.25;;;;;;;;5049932;27;8835;-83
2021/12/19 15:19:28;;;;;;;;;115.25;114.00;;;;;;;;5050814;28;8804;-83
2021/12/19 15:21:53;;;;;;;;;104.50;101.50;;;;;;;;5049581;27;8823;-83
2021/12/19 15:24:19;;;;;;;;;103.50;103.50;;;;;;;;5049649;28;8847;-83